Time;durP1;ratioP1;P1;durP2;ratioP2;P2;SDS_P1;SDS_P2;PMS_P1;PMS_P2;Temp;Humidity;BMP_temperature;BMP_pressure;BME280_temperature;BME280_humidity;BME280_pressure;Samples;Min_cycle;Max_cycle;Signal;HPM_P1;HPM_P2
2021/05/18 00:00:36;;;;;;;17.23;15.43;;;7.90;99.90;;;;;;4940924;28;20063;-63
2021/05/18 00:03:13;;;;;;;15.52;13.85;;;7.90;99.90;;;;;;4936949;28;20140;-63
2021/05/18 00:05:43;;;;;;;14.50;12.98;;;7.80;99.90;;;;;;4943969;28;20047;-63
2021/05/18 00:08:11;;;;;;;17.60;14.17;;;7.80;99.90;;;;;;4942342;28;20055;-63
2021/05/18 00:13:35;;;;;;;16.40;14.63;;;7.70;99.90;;;;;;4938632;28;20051;-63
2021/05/18 00:16:04;;;;;;;15.05;13.30;;;7.70;99.90;;;;;;4943286;28;20438;-63
2021/05/18 00:18:33;;;;;;;14.67;12.60;;;7.60;99.90;;;;;;4943436;28;20181;-63
2021/05/18 00:21:01;;;;;;;14.65;13.27;;;7.60;99.90;;;;;;4943532;28;20278;-63
2021/05/18 00:23:28;;;;;;;15.20;12.70;;;7.60;99.90;;;;;;4939954;28;20051;-63
2021/05/18 00:25:55;;;;;;;15.57;12.63;;;7.60;99.90;;;;;;4943795;28;20051;-63
2021/05/18 00:28:22;;;;;;;14.52;13.10;;;7.50;99.90;;;;;;4942248;28;20046;-63
2021/05/18 00:30:49;;;;;;;14.73;13.23;;;7.50;99.90;;;;;;4936013;28;20143;-63
2021/05/18 00:33:22;;;;;;;15.05;13.55;;;7.40;99.90;;;;;;4954471;28;20079;-63
2021/05/18 00:35:50;;;;;;;14.73;13.23;;;7.40;99.90;;;;;;4948508;28;20079;-63
2021/05/18 00:38:18;;;;;;;15.65;13.80;;;7.30;99.90;;;;;;4940705;28;20054;-63
2021/05/18 00:40:50;;;;;;;14.15;12.75;;;7.30;99.90;;;;;;4944545;28;20055;-63
2021/05/18 00:43:17;;;;;;;15.00;13.52;;;7.20;99.90;;;;;;4939032;28;20058;-63
2021/05/18 00:45:49;;;;;;;15.80;14.15;;;7.20;99.90;;;;;;4927285;28;20138;-63
2021/05/18 00:48:19;;;;;;;15.52;13.85;;;7.20;99.90;;;;;;4955849;28;20622;-62
2021/05/18 00:50:59;;;;;;;16.30;14.57;;;7.20;99.90;;;;;;4959402;28;20134;-63
2021/05/18 00:53:27;;;;;;;16.48;14.60;;;7.20;99.90;;;;;;4943687;28;20481;-63
2021/05/18 00:58:56;;;;;;;14.68;13.18;;;7.10;99.90;;;;;;4928607;28;20054;-62
2021/05/18 01:01:23;;;;;;;14.25;12.90;;;7.10;99.90;;;;;;4943698;28;20518;-63
2021/05/18 01:03:52;;;;;;;15.38;13.45;;;7.10;99.90;;;;;;4948061;28;20681;-62
2021/05/18 01:06:29;;;;;;;14.88;13.30;;;7.00;99.90;;;;;;4945742;28;20097;-62
2021/05/18 01:09:15;;;;;;;15.10;13.57;;;7.00;99.90;;;;;;4942007;28;20070;-63
2021/05/18 01:11:45;;;;;;;14.10;12.70;;;7.00;99.90;;;;;;4938514;28;20047;-63
2021/05/18 01:14:17;;;;;;;15.68;14.15;;;7.00;99.90;;;;;;4947398;28;20058;-63
2021/05/18 01:16:47;;;;;;;15.10;13.52;;;7.00;99.90;;;;;;4944363;28;20043;-63
2021/05/18 01:19:16;;;;;;;14.88;13.43;;;7.00;99.90;;;;;;4931173;28;20706;-63
2021/05/18 01:21:43;;;;;;;16.15;14.52;;;7.00;99.90;;;;;;4945116;28;20063;-63
2021/05/18 01:24:11;;;;;;;15.45;14.02;;;7.00;99.90;;;;;;4960957;28;20055;-63
2021/05/18 01:26:41;;;;;;;15.52;13.10;;;7.00;99.90;;;;;;4943000;28;20074;-62
2021/05/18 01:29:09;;;;;;;15.43;13.88;;;7.00;99.90;;;;;;4944948;28;20513;-63
2021/05/18 01:31:42;;;;;;;14.55;13.13;;;7.00;99.90;;;;;;4960481;28;20063;-62
2021/05/18 01:34:09;;;;;;;15.30;13.80;;;6.90;99.90;;;;;;4933059;28;20446;-63
2021/05/18 01:36:42;;;;;;;14.15;12.75;;;6.90;99.90;;;;;;4930861;29;20051;-63
2021/05/18 01:44:36;;;;;;;15.30;13.70;;;6.90;99.90;;;;;;4957672;28;20110;-63
2021/05/18 01:47:05;;;;;;;16.42;14.15;;;7.00;99.90;;;;;;4950617;28;20050;-63
2021/05/18 01:49:39;;;;;;;17.30;15.23;;;6.90;99.90;;;;;;4938552;28;20110;-63
2021/05/18 01:52:08;;;;;;;13.90;12.50;;;6.90;99.90;;;;;;4933484;29;20050;-63
2021/05/18 01:54:36;;;;;;;15.95;14.25;;;7.00;99.90;;;;;;4958624;28;20164;-63
2021/05/18 01:59:54;;;;;;;14.70;13.30;;;6.90;99.90;;;;;;4928188;28;20549;-63
2021/05/18 02:02:24;;;;;;;15.27;13.63;;;6.90;99.90;;;;;;4946215;28;20121;-63
2021/05/18 02:05:04;;;;;;;13.85;12.55;;;6.90;99.90;;;;;;4943020;28;20390;-62
2021/05/18 02:07:44;;;;;;;14.60;12.68;;;6.90;99.90;;;;;;4943678;28;20046;-62
2021/05/18 02:10:14;;;;;;;14.43;12.77;;;6.90;99.90;;;;;;4942463;28;20063;-63
2021/05/18 02:12:55;;;;;;;16.52;12.95;;;6.90;99.90;;;;;;4961277;28;20146;-62
2021/05/18 02:18:38;;;;;;;15.57;13.90;;;6.90;99.90;;;;;;4958838;28;21104;-63
2021/05/18 02:26:34;;;;;;;15.88;14.25;;;6.80;99.90;;;;;;4948182;28;20134;-63
2021/05/18 02:29:03;;;;;;;15.73;14.23;;;6.80;99.90;;;;;;4942274;28;20059;-63
2021/05/18 02:31:32;;;;;;;14.43;12.95;;;6.80;99.90;;;;;;4959790;28;20507;-62
2021/05/18 02:34:10;;;;;;;17.42;15.52;;;6.80;99.90;;;;;;4955370;28;20051;-63
2021/05/18 02:36:39;;;;;;;14.73;13.15;;;6.80;99.90;;;;;;4945844;28;20095;-63
2021/05/18 02:39:06;;;;;;;14.18;12.88;;;6.80;99.90;;;;;;4940867;28;20051;-63
2021/05/18 02:41:34;;;;;;;14.48;12.95;;;6.80;99.90;;;;;;4941784;28;20043;-62
2021/05/18 02:44:07;;;;;;;16.55;14.63;;;6.80;99.90;;;;;;4953445;28;20447;-63
2021/05/18 02:49:27;;;;;;;15.07;13.50;;;6.80;99.90;;;;;;4922932;28;20039;-63
2021/05/18 02:51:54;;;;;;;16.27;14.65;;;6.80;99.90;;;;;;4942187;28;20047;-63
2021/05/18 02:54:26;;;;;;;16.23;13.60;;;6.80;99.90;;;;;;4939167;28;20130;-63
2021/05/18 02:56:59;;;;;;;17.25;15.00;;;6.90;99.90;;;;;;4944278;28;20431;-63
2021/05/18 02:59:27;;;;;;;16.15;14.45;;;6.90;99.90;;;;;;4939140;28;20055;-63
2021/05/18 03:01:58;;;;;;;15.75;14.30;;;6.90;99.90;;;;;;4946186;28;20051;-63
2021/05/18 03:04:29;;;;;;;17.92;16.02;;;6.90;99.90;;;;;;4955189;28;20469;-63
2021/05/18 03:06:59;;;;;;;13.98;12.57;;;6.90;99.90;;;;;;4944869;28;20110;-63
2021/05/18 03:09:26;;;;;;;15.93;14.30;;;7.00;99.90;;;;;;4938109;28;20085;-65
2021/05/18 03:11:54;;;;;;;15.02;13.43;;;7.00;99.90;;;;;;4945800;28;20433;-65
2021/05/18 03:14:22;;;;;;;17.58;13.95;;;7.00;99.90;;;;;;4941377;28;20051;-65
2021/05/18 03:16:50;;;;;;;15.35;13.30;;;7.00;99.90;;;;;;4945915;28;20121;-65
2021/05/18 03:19:17;;;;;;;15.50;13.90;;;7.00;99.90;;;;;;4939558;28;20063;-65
2021/05/18 03:21:45;;;;;;;15.10;13.48;;;7.00;99.90;;;;;;4944157;28;20058;-65
2021/05/18 03:24:13;;;;;;;17.40;15.55;;;7.00;99.90;;;;;;4934963;28;20114;-65
2021/05/18 03:26:45;;;;;;;14.75;13.25;;;7.00;99.90;;;;;;4946026;28;20520;-65
2021/05/18 03:29:25;;;;;;;16.63;14.65;;;7.10;99.90;;;;;;4938267;28;20130;-65
2021/05/18 03:34:38;;;;;;;17.17;15.48;;;7.20;99.90;;;;;;4940531;28;20473;-65
2021/05/18 03:40:07;;;;;;;18.30;16.42;;;7.30;99.90;;;;;;4916510;28;20118;-65
2021/05/18 03:42:38;;;;;;;18.98;17.05;;;7.30;99.90;;;;;;4943053;28;20043;-65
2021/05/18 03:45:17;;;;;;;17.60;15.50;;;7.30;99.90;;;;;;4944482;28;20114;-65
2021/05/18 03:53:43;;;;;;;12.25;11.05;;;7.30;99.90;;;;;;4938456;28;20058;-65
2021/05/18 03:59:04;;;;;;;11.07;9.98;;;7.00;99.90;;;;;;4938739;28;20106;-65
2021/05/18 04:04:23;;;;;;;10.32;9.35;;;6.80;99.90;;;;;;4943142;28;20058;-65
2021/05/18 04:23:20;;;;;;;7.95;7.25;;;7.00;99.90;;;;;;4954561;28;20134;-64
2021/05/18 04:26:13;;;;;;;10.70;9.60;;;7.10;99.90;;;;;;4939953;28;20055;-65
2021/05/18 04:40:22;;;;;;;10.88;9.77;;;7.50;99.90;;;;;;4945570;28;20047;-65
2021/05/18 04:48:30;;;;;;;11.35;10.20;;;7.90;99.90;;;;;;4942773;28;20043;-65
2021/05/18 04:54:06;;;;;;;11.70;10.10;;;8.20;99.90;;;;;;4943213;28;20051;-65
2021/05/18 04:59:29;;;;;;;11.65;9.73;;;8.40;99.90;;;;;;4944655;28;20043;-65
2021/05/18 05:09:29;;;;;;;10.00;8.85;;;9.00;99.90;;;;;;4945535;28;20533;-65
2021/05/18 05:14:42;;;;;;;9.73;8.85;;;9.10;99.90;;;;;;4949939;28;20045;-65
2021/05/18 05:17:09;;;;;;;7.30;6.60;;;9.30;99.90;;;;;;4947079;28;20473;-65
2021/05/18 05:19:41;;;;;;;8.88;8.07;;;9.30;99.90;;;;;;4940655;28;20070;-65
2021/05/18 05:22:09;;;;;;;7.80;6.18;;;9.50;99.90;;;;;;4943611;28;20094;-65
2021/05/18 05:24:37;;;;;;;7.53;5.00;;;9.70;99.90;;;;;;4960266;28;20047;-65
2021/05/18 05:27:04;;;;;;;5.63;4.95;;;9.80;99.90;;;;;;4944758;28;20055;-65
2021/05/18 05:29:31;;;;;;;5.45;4.80;;;10.00;99.90;;;;;;4945607;28;20043;-65
2021/05/18 05:31:58;;;;;;;7.28;4.72;;;10.10;99.90;;;;;;4947407;28;20053;-66
2021/05/18 05:34:25;;;;;;;5.38;4.43;;;10.20;99.90;;;;;;4947457;28;20048;-66
2021/05/18 05:36:52;;;;;;;4.75;3.90;;;10.30;99.90;;;;;;4946157;28;20465;-65
2021/05/18 05:39:23;;;;;;;4.30;3.90;;;10.40;99.90;;;;;;4939594;28;20051;-65
2021/05/18 05:41:52;;;;;;;6.05;4.53;;;10.40;99.90;;;;;;4943512;28;20059;-66
2021/05/18 05:44:20;;;;;;;4.38;3.78;;;10.50;99.90;;;;;;4944052;28;20054;-65
2021/05/18 05:46:47;;;;;;;4.07;3.70;;;10.60;99.90;;;;;;4943828;28;20043;-65
2021/05/18 05:49:14;;;;;;;4.25;3.85;;;10.60;99.90;;;;;;4958844;28;20039;-65
2021/05/18 05:51:41;;;;;;;6.20;3.80;;;10.70;99.90;;;;;;4946758;28;20493;-65
2021/05/18 05:54:09;;;;;;;12.13;4.15;;;10.70;99.90;;;;;;4947268;28;20221;-65
2021/05/18 05:56:36;;;;;;;4.25;3.83;;;10.80;99.90;;;;;;4942234;28;20059;-65
2021/05/18 05:59:05;;;;;;;4.40;3.22;;;10.80;99.90;;;;;;4946505;28;20056;-65
2021/05/18 06:01:33;;;;;;;5.10;3.25;;;10.90;99.90;;;;;;4942912;28;20051;-63
2021/05/18 06:04:00;;;;;;;5.97;3.42;;;10.90;99.90;;;;;;4945875;28;20043;-63
2021/05/18 06:06:27;;;;;;;7.75;3.03;;;11.00;99.90;;;;;;4941094;28;20066;-62
2021/05/18 06:08:54;;;;;;;4.80;2.65;;;11.10;99.90;;;;;;4933675;28;20055;-63
2021/05/18 06:42:00;;;;;;;4.32;3.90;;;11.50;99.90;;;;;;4942329;28;20058;-63
2021/05/18 06:47:00;;;;;;;7.18;5.05;;;11.60;99.90;;;;;;4943776;28;20044;-63
2021/05/18 06:49:30;;;;;;;5.22;4.68;;;11.60;99.90;;;;;;4940272;28;20055;-63
2021/05/18 06:51:58;;;;;;;6.85;6.03;;;11.60;99.90;;;;;;4938214;28;20062;-63
2021/05/18 06:54:25;;;;;;;7.53;5.88;;;11.50;99.90;;;;;;4942954;28;20047;-63
2021/05/18 06:56:54;;;;;;;10.88;6.57;;;11.50;99.90;;;;;;4942089;28;20055;-63
2021/05/18 07:01:48;;;;;;;9.77;7.10;;;11.50;99.90;;;;;;4948480;28;20093;-63
2021/05/18 07:04:16;;;;;;;10.93;7.75;;;11.50;99.90;;;;;;4942561;28;20106;-63
2021/05/18 07:09:29;;;;;;;23.45;8.57;;;11.50;99.90;;;;;;4941747;28;20059;-63
2021/05/18 07:11:56;;;;;;;8.57;7.68;;;11.40;99.90;;;;;;4942735;28;20052;-63
2021/05/18 07:14:23;;;;;;;9.13;8.32;;;11.40;99.90;;;;;;4945023;28;20047;-63
2021/05/18 07:16:51;;;;;;;8.90;8.00;;;11.30;99.90;;;;;;4944113;28;20051;-63
2021/05/18 07:19:19;;;;;;;8.77;8.05;;;11.30;99.90;;;;;;4942801;28;20063;-63
2021/05/18 07:21:46;;;;;;;9.20;8.43;;;11.30;99.90;;;;;;4940719;28;20454;-63
2021/05/18 07:24:19;;;;;;;9.82;8.85;;;11.30;99.90;;;;;;4943140;28;20047;-63
2021/05/18 07:26:46;;;;;;;8.75;7.95;;;11.30;99.90;;;;;;4940948;28;20059;-63
2021/05/18 07:29:13;;;;;;;7.57;6.85;;;11.50;99.90;;;;;;4945165;28;20055;-63
2021/05/18 07:31:40;;;;;;;9.88;7.30;;;11.50;99.90;;;;;;4941152;28;20055;-63
2021/05/18 07:34:07;;;;;;;7.13;6.47;;;11.70;99.90;;;;;;4944346;28;20055;-63
2021/05/18 07:36:34;;;;;;;11.15;9.75;;;11.70;99.90;;;;;;4941115;28;20039;-63
2021/05/18 07:39:02;;;;;;;9.40;8.50;;;11.80;99.90;;;;;;4950511;28;20051;-63
2021/05/18 07:41:31;;;;;;;18.55;10.48;;;11.80;99.90;;;;;;4940282;28;20510;-63
2021/05/18 07:44:00;;;;;;;8.85;8.10;;;11.80;99.90;;;;;;4941459;28;20142;-63
2021/05/18 07:46:27;;;;;;;10.95;9.10;;;11.90;99.90;;;;;;4922896;29;20055;-63
2021/05/18 08:07:24;;;;;;;7.38;6.78;;;12.20;99.90;;;;;;4946480;28;20051;-63
2021/05/18 08:09:55;;;;;;;7.28;6.60;;;12.30;99.90;;;;;;4944565;28;20040;-63
2021/05/18 08:12:22;;;;;;;8.68;7.78;;;12.20;99.90;;;;;;4948656;28;20051;-63
2021/05/18 08:58:20;;;;;;;8.95;7.43;;;12.50;99.90;;;;;;4943501;28;20051;-63
2021/05/18 09:41:55;;;;;;;10.40;9.38;;;12.50;99.90;;;;;;4921596;28;20054;-63
2021/05/18 09:49:57;;;;;;;11.38;8.27;;;12.60;99.90;;;;;;4948204;28;20075;-62
2021/05/18 10:36:49;;;;;;;8.73;7.95;;;12.50;99.90;;;;;;4942228;28;20521;-63
2021/05/18 10:39:27;;;;;;;9.25;8.25;;;12.20;99.90;;;;;;4939742;28;20055;-63
2021/05/18 10:41:55;;;;;;;8.30;7.47;;;12.20;99.90;;;;;;4939878;28;20493;-63
2021/05/18 10:44:22;;;;;;;10.00;9.00;;;12.30;99.90;;;;;;4946419;28;20066;-63
2021/05/18 10:46:51;;;;;;;10.48;9.45;;;12.00;99.90;;;;;;4940425;28;20046;-63
2021/05/18 10:49:35;;;;;;;9.60;8.57;;;11.90;99.90;;;;;;4945596;28;20063;-63
2021/05/18 10:52:08;;;;;;;9.27;8.32;;;11.90;99.90;;;;;;4940104;28;20055;-63
2021/05/18 10:54:43;;;;;;;7.97;7.07;;;12.10;99.90;;;;;;4951385;28;20039;-63
2021/05/18 10:57:15;;;;;;;7.80;7.10;;;12.30;99.90;;;;;;4937071;28;20051;-63
2021/05/18 10:59:48;;;;;;;8.23;7.53;;;12.20;99.90;;;;;;4947428;28;20449;-63
2021/05/18 11:02:21;;;;;;;10.70;7.55;;;11.90;99.90;;;;;;4945721;28;20100;-63
2021/05/18 11:04:53;;;;;;;7.13;6.53;;;12.00;99.90;;;;;;4943538;28;20068;-63
2021/05/18 11:07:22;;;;;;;6.13;5.63;;;12.30;99.90;;;;;;4943444;28;20063;-63
2021/05/18 11:09:53;;;;;;;8.10;7.33;;;12.40;99.90;;;;;;4941560;28;20111;-63
2021/05/18 11:12:24;;;;;;;6.95;6.25;;;12.40;99.90;;;;;;4950548;28;20046;-63
2021/05/18 11:15:05;;;;;;;8.27;7.45;;;12.20;99.90;;;;;;4941552;28;20039;-63
2021/05/18 11:17:36;;;;;;;;;;;12.20;99.90;;;;;;4950967;28;20043;-63
2021/05/18 11:20:09;;;;;;;9.02;6.93;;;12.00;99.90;;;;;;4940883;28;19923;-63
2021/05/18 11:23:29;;;;;;;6.72;5.97;;;12.20;99.90;;;;;;4935717;28;20074;-63
2021/05/18 11:26:06;;;;;;;6.90;5.93;;;12.20;99.90;;;;;;4917670;28;20059;-63
2021/05/18 11:28:40;;;;;;;6.38;5.78;;;12.30;99.90;;;;;;4941150;28;20047;-63
2021/05/18 11:31:08;;;;;;;7.25;4.75;;;12.40;99.90;;;;;;4945684;28;20137;-63
2021/05/18 11:33:46;;;;;;;5.72;5.00;;;12.60;99.90;;;;;;4938301;28;20044;-63
2021/05/18 11:36:41;;;;;;;7.22;5.30;;;12.70;99.90;;;;;;4946477;28;20048;-63
2021/05/18 11:39:15;;;;;;;6.32;5.82;;;12.80;99.90;;;;;;4938037;28;20058;-63
2021/05/18 11:41:44;;;;;;;7.95;4.40;;;12.90;99.90;;;;;;4936340;28;20156;-63
2021/05/18 11:44:13;;;;;;;6.97;5.45;;;13.10;99.90;;;;;;4941244;28;20437;-63
2021/05/18 11:46:49;;;;;;;4.55;4.22;;;13.30;99.90;;;;;;4941384;28;20051;-63
2021/05/18 11:49:19;;;;;;;7.47;4.93;;;13.40;99.90;;;;;;4939910;28;20066;-63
2021/05/18 11:51:46;;;;;;;4.45;4.03;;;13.50;99.90;;;;;;4949017;28;20066;-63
2021/05/18 11:54:37;;;;;;;5.10;4.60;;;13.60;99.90;;;;;;4941650;28;20063;-63
2021/05/18 11:57:05;;;;;;;4.10;3.80;;;13.70;99.90;;;;;;4939877;28;20126;-63
2021/05/18 11:59:35;;;;;;;7.13;5.03;;;13.70;99.90;;;;;;4938281;28;20120;-63
2021/05/18 12:02:05;;;;;;;4.75;4.25;;;13.50;99.90;;;;;;4945754;28;20039;-63
2021/05/18 12:04:36;;;;;;;;;;;13.60;99.90;;;;;;4941839;28;20472;-64
2021/05/18 12:07:10;;;;;;;4.35;3.95;;;13.80;99.90;;;;;;4944596;28;19957;-64
2021/05/18 12:09:43;;;;;;;4.15;3.83;;;13.90;99.90;;;;;;4938491;28;20090;-63
2021/05/18 12:12:14;;;;;;;6.78;4.03;;;13.90;99.90;;;;;;4937781;28;20060;-64
2021/05/18 12:14:49;;;;;;;4.30;3.90;;;13.90;99.90;;;;;;4940221;28;20509;-63
2021/05/18 12:17:36;;;;;;;6.97;3.53;;;14.20;99.90;;;;;;4936194;28;20413;-63
2021/05/18 12:20:12;;;;;;;5.55;4.72;;;13.90;99.90;;;;;;4942461;28;20054;-63
2021/05/18 12:22:45;;;;;;;3.55;3.25;;;13.90;99.90;;;;;;4951977;28;20135;-63
2021/05/18 12:25:28;;;;;;;4.97;4.00;;;13.90;99.90;;;;;;4940961;28;21789;-63
2021/05/18 12:27:56;;;;;;;3.75;3.45;;;14.20;99.90;;;;;;4941495;28;20138;-63
2021/05/18 12:30:38;;;;;;;3.72;3.33;;;14.20;99.90;;;;;;4943284;28;20043;-64
2021/05/18 12:33:06;;;;;;;5.28;3.22;;;14.10;99.90;;;;;;4939722;28;20055;-64
2021/05/18 12:35:34;;;;;;;4.13;3.75;;;14.10;99.90;;;;;;4944843;28;20047;-63
2021/05/18 12:38:14;;;;;;;4.68;3.25;;;13.80;99.90;;;;;;4940246;28;20055;-63
2021/05/18 12:40:44;;;;;;;3.65;3.35;;;13.60;99.90;;;;;;4945746;28;20054;-63
2021/05/18 12:43:21;;;;;;;3.38;3.08;;;13.60;99.90;;;;;;4932318;28;20067;-65
2021/05/18 12:46:15;;;;;;;4.32;2.85;;;13.80;99.90;;;;;;4943837;28;20065;-63
2021/05/18 12:48:44;;;;;;;4.97;3.03;;;14.00;99.90;;;;;;4940048;28;20047;-63
2021/05/18 12:51:17;;;;;;;3.43;2.80;;;14.20;99.90;;;;;;4945469;28;20058;-64
2021/05/18 12:53:44;;;;;;;4.03;3.53;;;14.40;99.90;;;;;;4940331;28;20378;-63
2021/05/18 12:56:14;;;;;;;4.18;3.22;;;14.40;99.90;;;;;;4948814;28;20055;-63
2021/05/18 12:58:41;;;;;;;3.38;3.08;;;14.80;99.90;;;;;;4943459;28;20094;-63
2021/05/18 13:01:13;;;;;;;4.72;3.80;;;15.10;99.90;;;;;;4951182;28;20061;-63
2021/05/18 13:03:43;;;;;;;2.22;2.13;;;15.40;99.90;;;;;;4941783;28;20113;-63
2021/05/18 13:06:10;;;;;;;4.05;2.47;;;15.60;99.90;;;;;;4948085;28;20051;-63
2021/05/18 13:08:39;;;;;;;2.60;2.40;;;15.80;99.90;;;;;;4943403;28;20063;-63
2021/05/18 13:13:37;;;;;;;2.22;2.05;;;15.80;99.90;;;;;;4941752;28;20062;-63
2021/05/18 13:16:09;;;;;;;3.35;3.05;;;16.00;99.90;;;;;;4948325;28;20059;-63
2021/05/18 13:18:40;;;;;;;2.58;2.20;;;16.10;99.90;;;;;;4942748;28;20098;-63
2021/05/18 13:21:17;;;;;;;3.47;2.03;;;16.20;99.90;;;;;;4946117;28;20078;-64
2021/05/18 13:23:59;;;;;;;2.78;2.25;;;16.10;99.90;;;;;;4942722;28;20141;-64
2021/05/18 13:26:27;;;;;;;1.90;1.80;;;16.20;99.90;;;;;;4945043;28;20193;-64
2021/05/18 13:29:07;;;;;;;2.13;1.92;;;16.40;99.90;;;;;;4943100;28;20400;-63
2021/05/18 13:31:37;;;;;;;2.10;1.90;;;16.40;99.90;;;;;;4943187;28;20051;-63
2021/05/18 13:34:06;;;;;;;1.98;1.88;;;16.60;99.90;;;;;;4943904;28;20051;-63
2021/05/18 13:36:44;;;;;;;1.90;1.80;;;16.60;99.90;;;;;;4945592;28;20052;-63
2021/05/18 13:39:14;;;;;;;1.98;1.83;;;16.40;99.90;;;;;;4941986;28;20063;-63
2021/05/18 13:41:42;;;;;;;2.25;1.40;;;16.50;99.90;;;;;;4938215;28;20110;-63
2021/05/18 13:44:10;;;;;;;2.03;1.73;;;16.70;99.90;;;;;;4945387;28;20078;-63
2021/05/18 13:46:37;;;;;;;1.83;1.73;;;16.90;99.90;;;;;;4948492;28;20059;-63
2021/05/18 13:49:13;;;;;;;1.48;1.35;;;17.00;99.90;;;;;;4943706;28;20084;-64
2021/05/18 13:51:41;;;;;;;1.67;1.48;;;17.20;99.90;;;;;;4944213;28;20055;-63
2021/05/18 13:54:17;;;;;;;1.80;1.67;;;17.10;99.90;;;;;;4946614;28;20055;-63
2021/05/18 13:56:45;;;;;;;1.40;1.30;;;17.30;99.90;;;;;;4941208;28;20063;-63
2021/05/18 13:59:12;;;;;;;2.45;1.20;;;17.50;99.90;;;;;;4944918;28;20055;-63
2021/05/18 14:01:39;;;;;;;1.40;1.08;;;17.50;99.90;;;;;;4943797;28;20047;-63
2021/05/18 14:04:06;;;;;;;1.15;1.00;;;17.60;99.90;;;;;;4943402;28;20073;-63
2021/05/18 14:06:35;;;;;;;1.20;1.08;;;17.80;99.90;;;;;;4942256;28;20050;-63
2021/05/18 14:09:05;;;;;;;1.42;1.33;;;17.80;99.90;;;;;;4942342;28;20067;-64
2021/05/18 14:11:32;;;;;;;3.15;1.25;;;17.90;99.90;;;;;;4940714;28;20051;-64
2021/05/18 14:13:59;;;;;;;2.60;0.80;;;17.90;99.90;;;;;;4946052;28;20205;-63
2021/05/18 14:16:26;;;;;;;1.95;1.15;;;18.00;99.90;;;;;;4942353;28;20511;-63
2021/05/18 14:18:57;;;;;;;1.00;0.93;;;18.30;99.90;;;;;;4941041;28;20411;-63
2021/05/18 14:21:26;;;;;;;0.88;0.82;;;18.30;99.90;;;;;;4934406;28;20047;-63
2021/05/18 14:26:23;;;;;;;1.67;1.00;;;18.00;99.90;;;;;;4948575;28;20047;-63
2021/05/18 14:28:50;;;;;;;3.08;1.38;;;17.80;99.90;;;;;;4944650;28;20050;-63
2021/05/18 14:31:18;;;;;;;1.77;1.38;;;17.40;99.90;;;;;;4941597;28;20055;-63
2021/05/18 14:33:45;;;;;;;1.30;0.88;;;17.30;99.90;;;;;;4935509;28;20047;-63
2021/05/18 14:36:13;;;;;;;2.15;1.75;;;17.10;99.90;;;;;;4942222;28;20075;-63
2021/05/18 14:39:04;;;;;;;2.97;1.30;;;17.00;99.90;;;;;;4945796;28;20130;-63
2021/05/18 14:44:22;;;;;;;1.88;1.52;;;17.60;99.90;;;;;;4948075;28;20043;-63
2021/05/18 14:46:58;;;;;;;1.98;0.90;;;18.10;99.90;;;;;;4941483;28;20080;-63
2021/05/18 14:55:17;;;;;;;5.93;2.60;;;19.30;97.10;;;;;;4959691;28;20039;-64
2021/05/18 14:57:44;;;;;;;1.15;0.68;;;19.50;95.80;;;;;;4943307;28;20399;-63
2021/05/18 15:00:11;;;;;;;0.60;0.60;;;19.10;94.80;;;;;;4944782;28;20051;-63
2021/05/18 15:02:38;;;;;;;0.77;0.77;;;18.70;95.00;;;;;;4941278;28;20396;-64
2021/05/18 15:05:07;;;;;;;0.63;0.50;;;18.80;95.40;;;;;;4952600;28;20063;-63
2021/05/18 15:07:34;;;;;;;0.88;0.55;;;18.90;95.60;;;;;;4941069;28;20078;-64
2021/05/18 15:10:01;;;;;;;1.30;0.75;;;19.40;95.40;;;;;;4954100;28;20131;-63
2021/05/18 15:12:28;;;;;;;1.10;1.00;;;19.60;94.30;;;;;;4941557;28;20117;-63
2021/05/18 15:14:55;;;;;;;0.77;0.77;;;20.00;94.30;;;;;;4946283;28;20050;-64
2021/05/18 15:17:22;;;;;;;2.60;1.48;;;20.00;94.20;;;;;;4940758;28;20716;-64
2021/05/18 15:19:52;;;;;;;3.50;1.13;;;20.30;93.60;;;;;;4951433;28;20062;-64
2021/05/18 15:22:19;;;;;;;3.47;0.90;;;20.10;92.90;;;;;;4942246;28;20043;-64
2021/05/18 15:24:46;;;;;;;3.45;1.10;;;19.70;94.00;;;;;;4943950;28;20054;-64
2021/05/18 15:27:13;;;;;;;1.77;1.38;;;19.90;93.50;;;;;;4942461;28;20199;-64
2021/05/18 15:29:40;;;;;;;2.03;0.93;;;20.10;93.60;;;;;;4945434;28;20051;-64
2021/05/18 15:32:07;;;;;;;4.97;1.40;;;20.30;93.10;;;;;;4942680;28;20051;-64
2021/05/18 15:34:35;;;;;;;1.63;1.10;;;20.20;92.60;;;;;;4945928;28;20110;-64
2021/05/18 15:37:04;;;;;;;1.17;0.93;;;19.90;92.20;;;;;;4941857;28;20059;-64
2021/05/18 15:39:31;;;;;;;3.33;1.52;;;19.00;93.80;;;;;;4944854;28;20126;-64
2021/05/18 15:41:58;;;;;;;0.90;0.90;;;18.40;94.80;;;;;;4942115;28;20047;-64
2021/05/18 15:44:24;;;;;;;2.47;1.00;;;18.40;94.80;;;;;;4949162;28;20079;-63
2021/05/18 15:46:51;;;;;;;1.45;1.17;;;18.20;94.40;;;;;;4942653;28;20537;-64
2021/05/18 15:49:18;;;;;;;2.10;0.70;;;17.60;94.70;;;;;;4945802;28;20466;-64
2021/05/18 15:51:45;;;;;;;1.58;0.93;;;17.60;95.10;;;;;;4941796;28;20536;-64
2021/05/18 15:54:12;;;;;;;3.33;1.40;;;17.50;94.50;;;;;;4952343;28;20481;-64
2021/05/18 15:56:39;;;;;;;2.08;1.50;;;17.50;94.90;;;;;;4943819;28;20816;-64
2021/05/18 15:59:07;;;;;;;4.85;1.20;;;17.60;94.50;;;;;;4952815;28;20152;-64
2021/05/18 16:01:37;;;;;;;2.38;1.20;;;17.40;94.60;;;;;;4938878;28;20045;-63
2021/05/18 16:04:06;;;;;;;2.38;1.17;;;17.50;94.50;;;;;;4949898;28;20055;-64
2021/05/18 16:06:36;;;;;;;1.42;1.33;;;17.50;94.10;;;;;;4943512;28;20050;-64
2021/05/18 16:09:03;;;;;;;2.25;1.00;;;17.30;94.70;;;;;;4943797;28;20063;-64
2021/05/18 16:11:30;;;;;;;2.42;1.25;;;17.20;94.90;;;;;;4925822;28;20048;-64
2021/05/18 16:13:57;;;;;;;1.17;1.05;;;17.00;96.00;;;;;;4943281;28;20039;-64
2021/05/18 16:16:25;;;;;;;1.40;1.13;;;16.70;97.00;;;;;;4940909;28;20370;-64
2021/05/18 16:18:53;;;;;;;1.80;1.70;;;16.60;97.20;;;;;;4948315;28;20058;-64
2021/05/18 16:21:21;;;;;;;1.45;1.35;;;16.30;97.70;;;;;;4940600;28;20050;-64
2021/05/18 16:23:50;;;;;;;3.13;1.92;;;16.00;98.10;;;;;;4946654;28;20688;-63
2021/05/18 16:26:19;;;;;;;3.22;1.50;;;15.90;98.90;;;;;;4945092;28;20055;-64
2021/05/18 16:28:47;;;;;;;1.92;1.80;;;16.00;99.20;;;;;;4955004;28;20106;-64
2021/05/18 16:31:15;;;;;;;1.45;1.35;;;16.30;98.90;;;;;;4943686;28;20046;-63
2021/05/18 16:33:42;;;;;;;2.78;1.20;;;16.40;98.20;;;;;;4946633;28;20118;-63
2021/05/18 16:36:13;;;;;;;2.30;1.17;;;16.30;98.20;;;;;;4947118;28;20077;-64
2021/05/18 16:38:41;;;;;;;1.45;1.23;;;16.50;97.70;;;;;;4944138;28;20047;-64
2021/05/18 16:41:28;;;;;;;2.33;1.10;;;16.70;97.50;;;;;;4943330;28;20047;-63
2021/05/18 16:43:55;;;;;;;1.73;1.33;;;16.60;98.00;;;;;;4949858;28;20052;-64
2021/05/18 16:46:22;;;;;;;3.42;1.45;;;16.90;97.10;;;;;;4940367;28;20046;-64
2021/05/18 16:48:49;;;;;;;1.58;1.20;;;16.90;97.20;;;;;;4953293;28;20067;-64
2021/05/18 16:51:16;;;;;;;2.40;1.30;;;16.80;97.30;;;;;;4942512;28;20720;-64
2021/05/18 16:53:44;;;;;;;3.55;1.75;;;16.50;96.70;;;;;;4949539;28;20039;-63
2021/05/18 16:56:11;;;;;;;1.73;1.63;;;16.30;97.10;;;;;;4958012;28;20134;-63
2021/05/18 16:58:38;;;;;;;1.90;1.70;;;16.40;96.80;;;;;;4950473;28;20548;-64
2021/05/18 17:01:05;;;;;;;1.90;1.40;;;16.30;96.30;;;;;;4942817;28;20059;-64
2021/05/18 17:03:32;;;;;;;1.92;1.80;;;16.20;96.40;;;;;;4948826;28;20051;-63
2021/05/18 17:06:00;;;;;;;1.23;1.08;;;15.90;96.30;;;;;;4940404;28;20057;-64
2021/05/18 17:08:27;;;;;;;1.38;1.27;;;15.70;97.20;;;;;;4945875;28;20474;-64
2021/05/18 17:10:56;;;;;;;1.17;1.13;;;15.60;97.50;;;;;;4938581;28;20055;-63
2021/05/18 17:13:23;;;;;;;1.27;1.17;;;15.60;97.50;;;;;;4946769;28;20437;-64
2021/05/18 17:15:50;;;;;;;1.77;1.40;;;15.50;97.30;;;;;;4942778;28;20107;-64
2021/05/18 17:18:17;;;;;;;2.53;1.50;;;15.60;97.20;;;;;;4944326;28;20050;-64
2021/05/18 17:20:45;;;;;;;2.78;1.17;;;15.60;97.10;;;;;;4941827;28;20401;-64
2021/05/18 17:23:13;;;;;;;2.17;1.65;;;15.70;97.00;;;;;;4943981;28;20138;-64
2021/05/18 17:25:40;;;;;;;1.88;1.58;;;15.60;96.80;;;;;;4945553;28;20065;-64
2021/05/18 17:28:07;;;;;;;1.48;1.35;;;15.50;96.60;;;;;;4946685;28;20086;-63
2021/05/18 17:30:35;;;;;;;2.00;1.20;;;15.50;96.80;;;;;;4943438;28;20071;-64
2021/05/18 17:33:02;;;;;;;2.88;1.77;;;15.30;96.10;;;;;;4946341;28;20409;-64
2021/05/18 17:35:29;;;;;;;2.40;1.85;;;15.30;96.70;;;;;;4942363;28;20047;-64
2021/05/18 17:37:56;;;;;;;2.38;1.67;;;15.30;96.70;;;;;;4942010;28;20114;-64
2021/05/18 17:40:23;;;;;;;6.15;2.15;;;15.20;97.30;;;;;;4944173;28;20047;-63
2021/05/18 17:42:50;;;;;;;2.35;1.40;;;15.20;98.60;;;;;;4947395;28;20188;-63
2021/05/18 17:45:17;;;;;;;2.55;1.80;;;15.50;98.50;;;;;;4943074;28;20055;-64
2021/05/18 17:47:44;;;;;;;1.90;1.02;;;15.60;99.70;;;;;;4946965;28;20122;-64
2021/05/18 17:50:14;;;;;;;3.38;1.40;;;15.90;99.90;;;;;;4946474;28;20548;-64
2021/05/18 17:52:42;;;;;;;1.38;1.17;;;16.20;99.90;;;;;;4943608;28;20931;-64
2021/05/18 17:55:12;;;;;;;4.88;1.92;;;16.40;99.60;;;;;;4944834;28;20567;-64
2021/05/18 17:57:40;;;;;;;3.72;1.63;;;16.30;99.40;;;;;;4944115;28;20090;-64